sensor_id;sensor_type;location;lat;lon;timestamp;P1;durP1;ratioP1;P2;durP2;ratioP2
70605;SDS011;58173;52.500;5.494;2023-10-19T00:00:34;6.45;;;3.10;;
70605;SDS011;58173;52.500;5.494;2023-10-19T00:03:05;7.43;;;3.50;;
70605;SDS011;58173;52.500;5.494;2023-10-19T00:05:33;6.30;;;2.97;;
70605;SDS011;58173;52.500;5.494;2023-10-19T00:08:05;6.93;;;3.08;;
70605;SDS011;58173;52.500;5.494;2023-10-19T00:10:53;6.28;;;3.08;;
70605;SDS011;58173;52.500;5.494;2023-10-19T00:13:39;7.20;;;3.60;;
70605;SDS011;58173;52.500;5.494;2023-10-19T00:18:44;6.82;;;3.10;;
70605;SDS011;58173;52.500;5.494;2023-10-19T00:21:15;7.32;;;3.45;;
70605;SDS011;58173;52.500;5.494;2023-10-19T00:23:55;6.28;;;3.10;;
70605;SDS011;58173;52.500;5.494;2023-10-19T00:26:31;6.63;;;3.00;;
70605;SDS011;58173;52.500;5.494;2023-10-19T00:28:59;7.47;;;3.30;;
70605;SDS011;58173;52.500;5.494;2023-10-19T00:31:40;8.02;;;3.50;;
70605;SDS011;58173;52.500;5.494;2023-10-19T00:34:07;6.82;;;3.10;;
70605;SDS011;58173;52.500;5.494;2023-10-19T00:36:34;6.93;;;3.00;;
70605;SDS011;58173;52.500;5.494;2023-10-19T00:41:40;6.05;;;2.80;;
70605;SDS011;58173;52.500;5.494;2023-10-19T00:44:09;7.30;;;3.17;;
70605;SDS011;58173;52.500;5.494;2023-10-19T00:46:42;6.15;;;2.85;;
70605;SDS011;58173;52.500;5.494;2023-10-19T00:49:15;5.45;;;2.33;;
70605;SDS011;58173;52.500;5.494;2023-10-19T00:51:47;6.65;;;2.70;;
70605;SDS011;58173;52.500;5.494;2023-10-19T00:54:32;6.53;;;2.85;;
70605;SDS011;58173;52.500;5.494;2023-10-19T00:57:04;6.47;;;2.72;;
70605;SDS011;58173;52.500;5.494;2023-10-19T00:59:33;5.70;;;2.83;;
70605;SDS011;58173;52.500;5.494;2023-10-19T01:02:21;5.50;;;2.80;;
70605;SDS011;58173;52.500;5.494;2023-10-19T01:04:55;5.82;;;2.58;;
70605;SDS011;58173;52.500;5.494;2023-10-19T01:07:27;4.75;;;2.45;;
70605;SDS011;58173;52.500;5.494;2023-10-19T01:09:56;6.63;;;2.60;;
70605;SDS011;58173;52.500;5.494;2023-10-19T01:12:26;5.38;;;2.50;;
70605;SDS011;58173;52.500;5.494;2023-10-19T01:17:35;5.13;;;2.70;;
70605;SDS011;58173;52.500;5.494;2023-10-19T01:20:11;4.45;;;2.58;;
70605;SDS011;58173;52.500;5.494;2023-10-19T01:22:48;5.75;;;2.47;;
70605;SDS011;58173;52.500;5.494;2023-10-19T01:28:33;5.10;;;2.50;;
70605;SDS011;58173;52.500;5.494;2023-10-19T01:31:23;6.03;;;2.60;;
70605;SDS011;58173;52.500;5.494;2023-10-19T01:33:54;5.03;;;2.20;;
70605;SDS011;58173;52.500;5.494;2023-10-19T01:36:25;5.75;;;2.75;;
70605;SDS011;58173;52.500;5.494;2023-10-19T01:38:55;6.10;;;2.72;;
70605;SDS011;58173;52.500;5.494;2023-10-19T01:41:26;4.95;;;2.17;;
70605;SDS011;58173;52.500;5.494;2023-10-19T01:43:54;5.63;;;2.40;;
70605;SDS011;58173;52.500;5.494;2023-10-19T01:46:23;4.85;;;2.30;;
70605;SDS011;58173;52.500;5.494;2023-10-19T01:48:54;5.15;;;2.47;;
70605;SDS011;58173;52.500;5.494;2023-10-19T01:51:25;5.88;;;2.72;;
70605;SDS011;58173;52.500;5.494;2023-10-19T01:53:53;3.97;;;2.20;;
70605;SDS011;58173;52.500;5.494;2023-10-19T01:56:22;7.07;;;2.92;;
70605;SDS011;58173;52.500;5.494;2023-10-19T01:58:50;5.43;;;2.42;;
70605;SDS011;58173;52.500;5.494;2023-10-19T02:01:18;5.85;;;2.85;;
70605;SDS011;58173;52.500;5.494;2023-10-19T02:03:56;6.90;;;2.72;;
70605;SDS011;58173;52.500;5.494;2023-10-19T02:06:28;6.40;;;2.78;;
70605;SDS011;58173;52.500;5.494;2023-10-19T02:09:04;5.88;;;2.60;;
70605;SDS011;58173;52.500;5.494;2023-10-19T02:11:53;5.63;;;2.65;;
70605;SDS011;58173;52.500;5.494;2023-10-19T02:14:24;5.68;;;2.65;;
70605;SDS011;58173;52.500;5.494;2023-10-19T02:16:53;6.00;;;2.90;;
70605;SDS011;58173;52.500;5.494;2023-10-19T02:19:23;5.07;;;2.38;;
70605;SDS011;58173;52.500;5.494;2023-10-19T02:21:52;5.55;;;2.38;;
70605;SDS011;58173;52.500;5.494;2023-10-19T02:24:20;5.88;;;2.47;;
70605;SDS011;58173;52.500;5.494;2023-10-19T02:26:49;5.07;;;2.63;;
70605;SDS011;58173;52.500;5.494;2023-10-19T02:29:20;6.15;;;3.35;;
70605;SDS011;58173;52.500;5.494;2023-10-19T02:31:53;6.07;;;3.22;;
70605;SDS011;58173;52.500;5.494;2023-10-19T02:34:22;6.35;;;3.03;;
70605;SDS011;58173;52.500;5.494;2023-10-19T02:36:49;5.35;;;2.20;;
70605;SDS011;58173;52.500;5.494;2023-10-19T02:39:17;7.32;;;4.03;;
70605;SDS011;58173;52.500;5.494;2023-10-19T02:41:45;6.07;;;3.22;;
70605;SDS011;58173;52.500;5.494;2023-10-19T02:44:16;6.60;;;3.28;;
70605;SDS011;58173;52.500;5.494;2023-10-19T02:46:53;5.82;;;2.65;;
70605;SDS011;58173;52.500;5.494;2023-10-19T02:49:27;5.68;;;2.70;;
70605;SDS011;58173;52.500;5.494;2023-10-19T02:51:56;6.57;;;3.17;;
70605;SDS011;58173;52.500;5.494;2023-10-19T02:54:31;6.68;;;3.17;;
70605;SDS011;58173;52.500;5.494;2023-10-19T02:57:02;6.15;;;3.00;;
70605;SDS011;58173;52.500;5.494;2023-10-19T02:59:33;6.35;;;3.40;;
70605;SDS011;58173;52.500;5.494;2023-10-19T03:02:01;6.47;;;3.20;;
70605;SDS011;58173;52.500;5.494;2023-10-19T03:04:40;6.28;;;3.00;;
70605;SDS011;58173;52.500;5.494;2023-10-19T03:07:09;6.70;;;3.35;;
70605;SDS011;58173;52.500;5.494;2023-10-19T03:09:40;6.03;;;2.92;;
70605;SDS011;58173;52.500;5.494;2023-10-19T03:12:15;6.97;;;3.35;;
70605;SDS011;58173;52.500;5.494;2023-10-19T03:14:43;6.53;;;3.10;;
70605;SDS011;58173;52.500;5.494;2023-10-19T03:17:15;5.50;;;2.47;;
70605;SDS011;58173;52.500;5.494;2023-10-19T03:19:43;6.57;;;3.15;;
70605;SDS011;58173;52.500;5.494;2023-10-19T03:22:10;6.70;;;3.40;;
70605;SDS011;58173;52.500;5.494;2023-10-19T03:24:38;6.00;;;3.45;;
70605;SDS011;58173;52.500;5.494;2023-10-19T03:27:13;7.00;;;3.35;;
70605;SDS011;58173;52.500;5.494;2023-10-19T03:29:44;6.57;;;3.83;;
70605;SDS011;58173;52.500;5.494;2023-10-19T03:32:20;7.07;;;3.35;;
70605;SDS011;58173;52.500;5.494;2023-10-19T03:34:53;6.28;;;3.10;;
70605;SDS011;58173;52.500;5.494;2023-10-19T03:37:25;6.88;;;3.10;;
70605;SDS011;58173;52.500;5.494;2023-10-19T03:39:56;6.25;;;3.20;;
70605;SDS011;58173;52.500;5.494;2023-10-19T03:42:24;6.07;;;3.08;;
70605;SDS011;58173;52.500;5.494;2023-10-19T03:44:59;7.30;;;3.45;;
70605;SDS011;58173;52.500;5.494;2023-10-19T03:47:37;5.68;;;3.00;;
70605;SDS011;58173;52.500;5.494;2023-10-19T03:50:05;5.75;;;2.95;;
70605;SDS011;58173;52.500;5.494;2023-10-19T03:52:51;5.85;;;2.67;;
70605;SDS011;58173;52.500;5.494;2023-10-19T03:55:20;7.22;;;3.80;;
70605;SDS011;58173;52.500;5.494;2023-10-19T03:57:49;6.50;;;3.33;;
70605;SDS011;58173;52.500;5.494;2023-10-19T04:00:20;6.90;;;3.20;;
70605;SDS011;58173;52.500;5.494;2023-10-19T04:02:55;6.72;;;3.40;;
70605;SDS011;58173;52.500;5.494;2023-10-19T04:05:25;6.60;;;3.20;;
70605;SDS011;58173;52.500;5.494;2023-10-19T04:07:54;7.05;;;3.45;;
70605;SDS011;58173;52.500;5.494;2023-10-19T04:10:22;6.20;;;3.08;;
70605;SDS011;58173;52.500;5.494;2023-10-19T04:13:02;6.90;;;3.65;;
70605;SDS011;58173;52.500;5.494;2023-10-19T04:15:30;6.43;;;3.22;;
70605;SDS011;58173;52.500;5.494;2023-10-19T04:18:01;6.43;;;2.97;;
70605;SDS011;58173;52.500;5.494;2023-10-19T04:20:34;5.60;;;2.85;;
70605;SDS011;58173;52.500;5.494;2023-10-19T04:23:16;6.80;;;3.30;;
70605;SDS011;58173;52.500;5.494;2023-10-19T04:25:43;6.90;;;3.17;;
70605;SDS011;58173;52.500;5.494;2023-10-19T04:28:13;5.82;;;2.90;;
70605;SDS011;58173;52.500;5.494;2023-10-19T04:30:43;5.55;;;3.00;;
70605;SDS011;58173;52.500;5.494;2023-10-19T04:33:11;6.20;;;3.17;;
70605;SDS011;58173;52.500;5.494;2023-10-19T04:35:38;7.68;;;3.50;;
70605;SDS011;58173;52.500;5.494;2023-10-19T04:38:10;6.35;;;3.17;;
70605;SDS011;58173;52.500;5.494;2023-10-19T04:40:36;6.05;;;3.13;;
70605;SDS011;58173;52.500;5.494;2023-10-19T04:43:04;7.90;;;3.70;;
70605;SDS011;58173;52.500;5.494;2023-10-19T04:45:33;5.50;;;3.03;;
70605;SDS011;58173;52.500;5.494;2023-10-19T04:48:03;5.68;;;2.97;;
70605;SDS011;58173;52.500;5.494;2023-10-19T04:50:31;5.53;;;2.88;;
70605;SDS011;58173;52.500;5.494;2023-10-19T04:52:58;6.32;;;3.13;;
70605;SDS011;58173;52.500;5.494;2023-10-19T04:55:25;5.70;;;2.75;;
70605;SDS011;58173;52.500;5.494;2023-10-19T04:57:54;5.80;;;3.03;;
70605;SDS011;58173;52.500;5.494;2023-10-19T05:00:21;5.90;;;3.00;;
70605;SDS011;58173;52.500;5.494;2023-10-19T05:02:50;7.18;;;3.20;;
70605;SDS011;58173;52.500;5.494;2023-10-19T05:05:18;6.57;;;3.25;;
70605;SDS011;58173;52.500;5.494;2023-10-19T05:07:45;6.85;;;3.28;;
70605;SDS011;58173;52.500;5.494;2023-10-19T05:10:13;6.38;;;2.78;;
70605;SDS011;58173;52.500;5.494;2023-10-19T05:12:40;8.63;;;3.03;;
70605;SDS011;58173;52.500;5.494;2023-10-19T05:15:08;6.88;;;3.00;;
70605;SDS011;58173;52.500;5.494;2023-10-19T05:17:35;5.80;;;2.72;;
70605;SDS011;58173;52.500;5.494;2023-10-19T05:20:03;5.45;;;2.55;;
70605;SDS011;58173;52.500;5.494;2023-10-19T05:22:32;8.63;;;3.90;;
70605;SDS011;58173;52.500;5.494;2023-10-19T05:24:59;6.05;;;3.00;;
70605;SDS011;58173;52.500;5.494;2023-10-19T05:27:27;6.25;;;3.15;;
70605;SDS011;58173;52.500;5.494;2023-10-19T05:29:55;6.45;;;3.00;;
70605;SDS011;58173;52.500;5.494;2023-10-19T05:32:22;6.75;;;3.40;;
70605;SDS011;58173;52.500;5.494;2023-10-19T05:34:51;7.68;;;3.15;;
70605;SDS011;58173;52.500;5.494;2023-10-19T05:37:18;6.57;;;3.03;;
70605;SDS011;58173;52.500;5.494;2023-10-19T05:39:46;6.28;;;3.25;;
70605;SDS011;58173;52.500;5.494;2023-10-19T05:42:13;6.95;;;3.28;;
70605;SDS011;58173;52.500;5.494;2023-10-19T05:44:40;6.72;;;3.28;;
70605;SDS011;58173;52.500;5.494;2023-10-19T05:47:07;5.22;;;2.50;;
70605;SDS011;58173;52.500;5.494;2023-10-19T05:49:35;5.88;;;2.47;;
70605;SDS011;58173;52.500;5.494;2023-10-19T05:52:03;5.75;;;2.53;;
70605;SDS011;58173;52.500;5.494;2023-10-19T05:54:30;4.57;;;2.20;;
70605;SDS011;58173;52.500;5.494;2023-10-19T05:56:58;5.15;;;2.60;;
70605;SDS011;58173;52.500;5.494;2023-10-19T05:59:25;4.35;;;2.25;;
70605;SDS011;58173;52.500;5.494;2023-10-19T06:01:53;5.75;;;2.22;;
70605;SDS011;58173;52.500;5.494;2023-10-19T06:04:30;5.50;;;2.40;;
70605;SDS011;58173;52.500;5.494;2023-10-19T06:06:58;4.78;;;2.38;;
70605;SDS011;58173;52.500;5.494;2023-10-19T06:09:26;4.43;;;2.30;;
70605;SDS011;58173;52.500;5.494;2023-10-19T06:11:55;4.15;;;2.03;;
70605;SDS011;58173;52.500;5.494;2023-10-19T06:14:23;4.32;;;2.17;;
70605;SDS011;58173;52.500;5.494;2023-10-19T06:16:50;4.63;;;2.20;;
70605;SDS011;58173;52.500;5.494;2023-10-19T06:19:19;4.63;;;2.30;;
70605;SDS011;58173;52.500;5.494;2023-10-19T06:21:46;3.67;;;1.90;;
70605;SDS011;58173;52.500;5.494;2023-10-19T06:24:13;4.35;;;1.88;;
70605;SDS011;58173;52.500;5.494;2023-10-19T06:26:47;4.60;;;2.08;;
70605;SDS011;58173;52.500;5.494;2023-10-19T06:29:14;3.83;;;2.05;;
70605;SDS011;58173;52.500;5.494;2023-10-19T06:31:41;4.90;;;2.22;;
70605;SDS011;58173;52.500;5.494;2023-10-19T06:34:10;4.70;;;2.30;;
70605;SDS011;58173;52.500;5.494;2023-10-19T06:36:40;4.35;;;2.20;;
70605;SDS011;58173;52.500;5.494;2023-10-19T06:39:07;4.18;;;1.98;;
70605;SDS011;58173;52.500;5.494;2023-10-19T06:41:34;4.18;;;1.80;;
70605;SDS011;58173;52.500;5.494;2023-10-19T06:44:01;4.30;;;1.90;;
70605;SDS011;58173;52.500;5.494;2023-10-19T06:46:32;3.03;;;1.63;;
70605;SDS011;58173;52.500;5.494;2023-10-19T06:48:59;5.97;;;1.98;;
70605;SDS011;58173;52.500;5.494;2023-10-19T06:51:27;3.65;;;1.88;;
70605;SDS011;58173;52.500;5.494;2023-10-19T06:53:55;2.58;;;1.60;;
70605;SDS011;58173;52.500;5.494;2023-10-19T06:56:22;4.57;;;2.03;;
70605;SDS011;58173;52.500;5.494;2023-10-19T06:58:50;3.67;;;1.90;;
70605;SDS011;58173;52.500;5.494;2023-10-19T07:01:17;3.05;;;1.40;;
70605;SDS011;58173;52.500;5.494;2023-10-19T07:03:49;4.72;;;1.80;;
70605;SDS011;58173;52.500;5.494;2023-10-19T07:06:20;3.75;;;1.70;;
70605;SDS011;58173;52.500;5.494;2023-10-19T07:08:47;6.38;;;1.65;;
70605;SDS011;58173;52.500;5.494;2023-10-19T07:11:14;3.70;;;1.63;;
70605;SDS011;58173;52.500;5.494;2023-10-19T07:13:41;3.92;;;1.73;;
70605;SDS011;58173;52.500;5.494;2023-10-19T07:16:12;3.65;;;1.85;;
70605;SDS011;58173;52.500;5.494;2023-10-19T07:18:40;4.65;;;1.80;;
70605;SDS011;58173;52.500;5.494;2023-10-19T07:21:08;4.03;;;1.80;;
70605;SDS011;58173;52.500;5.494;2023-10-19T07:23:36;5.90;;;1.85;;
70605;SDS011;58173;52.500;5.494;2023-10-19T07:26:10;3.25;;;1.60;;
70605;SDS011;58173;52.500;5.494;2023-10-19T07:28:39;3.30;;;1.42;;
70605;SDS011;58173;52.500;5.494;2023-10-19T07:31:06;3.53;;;1.60;;
70605;SDS011;58173;52.500;5.494;2023-10-19T07:33:39;4.05;;;1.83;;
70605;SDS011;58173;52.500;5.494;2023-10-19T07:36:12;3.88;;;1.42;;
70605;SDS011;58173;52.500;5.494;2023-10-19T07:38:44;4.03;;;1.70;;
70605;SDS011;58173;52.500;5.494;2023-10-19T07:41:14;3.13;;;1.52;;
70605;SDS011;58173;52.500;5.494;2023-10-19T07:43:42;3.47;;;1.50;;
70605;SDS011;58173;52.500;5.494;2023-10-19T07:46:13;4.78;;;2.05;;
70605;SDS011;58173;52.500;5.494;2023-10-19T07:48:40;3.05;;;1.60;;
70605;SDS011;58173;52.500;5.494;2023-10-19T07:51:08;2.30;;;1.50;;
70605;SDS011;58173;52.500;5.494;2023-10-19T07:53:37;3.53;;;1.77;;
70605;SDS011;58173;52.500;5.494;2023-10-19T07:56:04;3.30;;;1.85;;
70605;SDS011;58173;52.500;5.494;2023-10-19T07:58:31;3.03;;;1.60;;
70605;SDS011;58173;52.500;5.494;2023-10-19T08:01:00;3.08;;;1.40;;
70605;SDS011;58173;52.500;5.494;2023-10-19T08:03:27;2.88;;;1.60;;
70605;SDS011;58173;52.500;5.494;2023-10-19T08:05:57;3.08;;;1.58;;
70605;SDS011;58173;52.500;5.494;2023-10-19T08:08:25;2.88;;;1.30;;
70605;SDS011;58173;52.500;5.494;2023-10-19T08:10:59;3.97;;;1.60;;
70605;SDS011;58173;52.500;5.494;2023-10-19T08:13:27;3.25;;;1.40;;
70605;SDS011;58173;52.500;5.494;2023-10-19T08:15:58;3.85;;;1.35;;
70605;SDS011;58173;52.500;5.494;2023-10-19T08:18:25;2.42;;;1.40;;
70605;SDS011;58173;52.500;5.494;2023-10-19T08:20:53;2.47;;;1.40;;
70605;SDS011;58173;52.500;5.494;2023-10-19T08:23:20;3.03;;;1.45;;
70605;SDS011;58173;52.500;5.494;2023-10-19T08:25:53;3.25;;;1.65;;
70605;SDS011;58173;52.500;5.494;2023-10-19T08:28:23;4.07;;;1.70;;
70605;SDS011;58173;52.500;5.494;2023-10-19T08:30:51;3.30;;;1.52;;
70605;SDS011;58173;52.500;5.494;2023-10-19T08:33:24;2.92;;;1.48;;
70605;SDS011;58173;52.500;5.494;2023-10-19T08:35:52;3.42;;;1.55;;
70605;SDS011;58173;52.500;5.494;2023-10-19T08:38:23;4.28;;;1.80;;
70605;SDS011;58173;52.500;5.494;2023-10-19T08:40:50;2.88;;;1.60;;
70605;SDS011;58173;52.500;5.494;2023-10-19T08:43:21;4.28;;;1.80;;
70605;SDS011;58173;52.500;5.494;2023-10-19T08:45:49;4.25;;;1.77;;
70605;SDS011;58173;52.500;5.494;2023-10-19T08:48:16;3.55;;;1.50;;
70605;SDS011;58173;52.500;5.494;2023-10-19T08:50:46;3.50;;;1.70;;
70605;SDS011;58173;52.500;5.494;2023-10-19T08:53:15;5.25;;;1.60;;
70605;SDS011;58173;52.500;5.494;2023-10-19T08:55:43;4.38;;;1.83;;
70605;SDS011;58173;52.500;5.494;2023-10-19T08:58:16;3.60;;;1.50;;
70605;SDS011;58173;52.500;5.494;2023-10-19T09:00:49;3.72;;;1.60;;
70605;SDS011;58173;52.500;5.494;2023-10-19T09:03:24;4.75;;;1.50;;
70605;SDS011;58173;52.500;5.494;2023-10-19T09:05:53;4.25;;;1.55;;
70605;SDS011;58173;52.500;5.494;2023-10-19T09:08:21;5.32;;;1.60;;
70605;SDS011;58173;52.500;5.494;2023-10-19T09:10:51;3.95;;;1.70;;
70605;SDS011;58173;52.500;5.494;2023-10-19T09:13:20;3.80;;;1.55;;
70605;SDS011;58173;52.500;5.494;2023-10-19T09:15:50;4.88;;;1.70;;
70605;SDS011;58173;52.500;5.494;2023-10-19T09:18:23;5.22;;;1.48;;
70605;SDS011;58173;52.500;5.494;2023-10-19T09:20:51;4.05;;;1.40;;
70605;SDS011;58173;52.500;5.494;2023-10-19T09:23:23;3.88;;;1.50;;
70605;SDS011;58173;52.500;5.494;2023-10-19T09:25:51;4.63;;;1.50;;
70605;SDS011;58173;52.500;5.494;2023-10-19T09:28:20;2.97;;;1.40;;
70605;SDS011;58173;52.500;5.494;2023-10-19T09:30:48;4.03;;;1.30;;
70605;SDS011;58173;52.500;5.494;2023-10-19T09:33:16;5.70;;;2.72;;
70605;SDS011;58173;52.500;5.494;2023-10-19T09:35:48;5.38;;;1.70;;
70605;SDS011;58173;52.500;5.494;2023-10-19T09:38:19;3.47;;;1.40;;
70605;SDS011;58173;52.500;5.494;2023-10-19T09:40:52;3.60;;;1.48;;
70605;SDS011;58173;52.500;5.494;2023-10-19T09:43:41;3.95;;;1.63;;
70605;SDS011;58173;52.500;5.494;2023-10-19T09:46:11;4.68;;;1.60;;
70605;SDS011;58173;52.500;5.494;2023-10-19T09:48:45;4.07;;;1.50;;
70605;SDS011;58173;52.500;5.494;2023-10-19T09:51:14;5.95;;;2.00;;
70605;SDS011;58173;52.500;5.494;2023-10-19T09:53:44;3.63;;;1.30;;
70605;SDS011;58173;52.500;5.494;2023-10-19T09:56:15;5.30;;;1.60;;
70605;SDS011;58173;52.500;5.494;2023-10-19T09:58:45;4.35;;;1.73;;
70605;SDS011;58173;52.500;5.494;2023-10-19T10:01:13;7.35;;;1.60;;
70605;SDS011;58173;52.500;5.494;2023-10-19T10:03:41;5.03;;;1.50;;
70605;SDS011;58173;52.500;5.494;2023-10-19T10:06:11;6.18;;;1.63;;
70605;SDS011;58173;52.500;5.494;2023-10-19T10:08:41;4.97;;;1.60;;
70605;SDS011;58173;52.500;5.494;2023-10-19T10:11:24;4.10;;;1.70;;
70605;SDS011;58173;52.500;5.494;2023-10-19T10:13:55;5.20;;;1.45;;
70605;SDS011;58173;52.500;5.494;2023-10-19T10:16:24;4.28;;;1.67;;
70605;SDS011;58173;52.500;5.494;2023-10-19T10:18:56;4.75;;;1.50;;
70605;SDS011;58173;52.500;5.494;2023-10-19T10:21:26;4.72;;;1.70;;
70605;SDS011;58173;52.500;5.494;2023-10-19T10:24:02;4.60;;;1.90;;
70605;SDS011;58173;52.500;5.494;2023-10-19T10:26:31;3.63;;;1.40;;
70605;SDS011;58173;52.500;5.494;2023-10-19T10:31:42;18.45;;;4.60;;
70605;SDS011;58173;52.500;5.494;2023-10-19T10:34:09;30.38;;;8.10;;
70605;SDS011;58173;52.500;5.494;2023-10-19T10:39:32;26.65;;;6.57;;
70605;SDS011;58173;52.500;5.494;2023-10-19T10:42:01;28.20;;;6.97;;
70605;SDS011;58173;52.500;5.494;2023-10-19T10:44:38;24.33;;;6.22;;
70605;SDS011;58173;52.500;5.494;2023-10-19T10:47:07;19.98;;;6.25;;
70605;SDS011;58173;52.500;5.494;2023-10-19T10:52:34;24.13;;;6.63;;
70605;SDS011;58173;52.500;5.494;2023-10-19T10:55:12;24.70;;;6.78;;
70605;SDS011;58173;52.500;5.494;2023-10-19T10:57:40;25.92;;;7.47;;
70605;SDS011;58173;52.500;5.494;2023-10-19T11:00:09;24.35;;;6.53;;
70605;SDS011;58173;52.500;5.494;2023-10-19T11:02:41;19.88;;;5.97;;
70605;SDS011;58173;52.500;5.494;2023-10-19T11:05:10;20.77;;;6.00;;
70605;SDS011;58173;52.500;5.494;2023-10-19T11:07:41;21.00;;;5.80;;
70605;SDS011;58173;52.500;5.494;2023-10-19T11:10:08;23.38;;;5.78;;
70605;SDS011;58173;52.500;5.494;2023-10-19T11:12:36;20.73;;;6.35;;
70605;SDS011;58173;52.500;5.494;2023-10-19T11:15:09;25.98;;;6.38;;
70605;SDS011;58173;52.500;5.494;2023-10-19T11:17:43;24.15;;;5.53;;
70605;SDS011;58173;52.500;5.494;2023-10-19T11:20:20;20.25;;;5.78;;
70605;SDS011;58173;52.500;5.494;2023-10-19T11:22:49;19.25;;;5.65;;
70605;SDS011;58173;52.500;5.494;2023-10-19T11:25:20;22.08;;;6.45;;
70605;SDS011;58173;52.500;5.494;2023-10-19T11:27:47;21.90;;;5.68;;
70605;SDS011;58173;52.500;5.494;2023-10-19T11:30:24;22.40;;;5.95;;
70605;SDS011;58173;52.500;5.494;2023-10-19T11:32:52;20.30;;;5.80;;
70605;SDS011;58173;52.500;5.494;2023-10-19T11:35:24;17.88;;;5.22;;
70605;SDS011;58173;52.500;5.494;2023-10-19T11:37:52;15.65;;;5.07;;
70605;SDS011;58173;52.500;5.494;2023-10-19T11:40:23;19.00;;;5.70;;
70605;SDS011;58173;52.500;5.494;2023-10-19T11:42:52;15.48;;;5.10;;
70605;SDS011;58173;52.500;5.494;2023-10-19T11:45:22;22.08;;;6.15;;
70605;SDS011;58173;52.500;5.494;2023-10-19T11:47:53;18.48;;;5.22;;
70605;SDS011;58173;52.500;5.494;2023-10-19T11:50:21;18.08;;;6.25;;
70605;SDS011;58173;52.500;5.494;2023-10-19T11:52:48;15.13;;;5.18;;
70605;SDS011;58173;52.500;5.494;2023-10-19T11:55:15;21.75;;;5.32;;
70605;SDS011;58173;52.500;5.494;2023-10-19T11:57:43;19.58;;;5.88;;
70605;SDS011;58173;52.500;5.494;2023-10-19T12:00:10;16.23;;;4.80;;
70605;SDS011;58173;52.500;5.494;2023-10-19T12:02:48;20.85;;;5.50;;
70605;SDS011;58173;52.500;5.494;2023-10-19T12:05:16;16.98;;;5.22;;
70605;SDS011;58173;52.500;5.494;2023-10-19T12:07:43;15.52;;;4.80;;
70605;SDS011;58173;52.500;5.494;2023-10-19T12:10:11;18.25;;;5.20;;
70605;SDS011;58173;52.500;5.494;2023-10-19T12:12:39;17.40;;;5.03;;
70605;SDS011;58173;52.500;5.494;2023-10-19T12:15:32;17.45;;;5.32;;
70605;SDS011;58173;52.500;5.494;2023-10-19T12:17:59;14.15;;;4.72;;
70605;SDS011;58173;52.500;5.494;2023-10-19T12:20:28;15.35;;;5.20;;
70605;SDS011;58173;52.500;5.494;2023-10-19T12:23:00;15.73;;;5.20;;
70605;SDS011;58173;52.500;5.494;2023-10-19T12:25:27;14.88;;;4.88;;
70605;SDS011;58173;52.500;5.494;2023-10-19T12:28:18;16.33;;;5.18;;
70605;SDS011;58173;52.500;5.494;2023-10-19T12:30:45;14.73;;;4.80;;
70605;SDS011;58173;52.500;5.494;2023-10-19T12:33:13;13.90;;;5.70;;
70605;SDS011;58173;52.500;5.494;2023-10-19T12:35:40;16.13;;;4.82;;
70605;SDS011;58173;52.500;5.494;2023-10-19T12:38:12;15.82;;;4.93;;
70605;SDS011;58173;52.500;5.494;2023-10-19T12:40:45;17.65;;;4.65;;
70605;SDS011;58173;52.500;5.494;2023-10-19T12:43:13;13.43;;;4.55;;
70605;SDS011;58173;52.500;5.494;2023-10-19T12:45:41;16.95;;;4.57;;
70605;SDS011;58173;52.500;5.494;2023-10-19T12:48:10;15.52;;;4.78;;
70605;SDS011;58173;52.500;5.494;2023-10-19T12:50:38;13.93;;;4.68;;
70605;SDS011;58173;52.500;5.494;2023-10-19T12:53:07;14.60;;;4.60;;
70605;SDS011;58173;52.500;5.494;2023-10-19T12:55:35;15.35;;;4.55;;
70605;SDS011;58173;52.500;5.494;2023-10-19T12:58:05;13.68;;;4.72;;
70605;SDS011;58173;52.500;5.494;2023-10-19T13:00:33;16.67;;;5.80;;
70605;SDS011;58173;52.500;5.494;2023-10-19T13:03:07;18.67;;;5.20;;
70605;SDS011;58173;52.500;5.494;2023-10-19T13:05:35;16.88;;;5.28;;
70605;SDS011;58173;52.500;5.494;2023-10-19T13:08:09;14.15;;;4.90;;
70605;SDS011;58173;52.500;5.494;2023-10-19T13:10:40;16.20;;;5.30;;
70605;SDS011;58173;52.500;5.494;2023-10-19T13:13:12;16.23;;;5.30;;
70605;SDS011;58173;52.500;5.494;2023-10-19T13:15:41;16.05;;;5.10;;
70605;SDS011;58173;52.500;5.494;2023-10-19T13:18:10;17.45;;;5.70;;
70605;SDS011;58173;52.500;5.494;2023-10-19T13:20:39;15.77;;;5.78;;
70605;SDS011;58173;52.500;5.494;2023-10-19T13:23:10;18.20;;;4.88;;
70605;SDS011;58173;52.500;5.494;2023-10-19T13:25:43;17.75;;;4.95;;
70605;SDS011;58173;52.500;5.494;2023-10-19T13:28:17;19.90;;;5.60;;
70605;SDS011;58173;52.500;5.494;2023-10-19T13:30:48;16.67;;;5.05;;
70605;SDS011;58173;52.500;5.494;2023-10-19T13:33:16;22.50;;;5.57;;
70605;SDS011;58173;52.500;5.494;2023-10-19T13:35:45;22.92;;;5.80;;
70605;SDS011;58173;52.500;5.494;2023-10-19T13:38:17;22.65;;;5.45;;
70605;SDS011;58173;52.500;5.494;2023-10-19T13:40:48;22.88;;;5.70;;
70605;SDS011;58173;52.500;5.494;2023-10-19T13:43:18;26.55;;;5.72;;
70605;SDS011;58173;52.500;5.494;2023-10-19T13:45:46;21.42;;;5.20;;
70605;SDS011;58173;52.500;5.494;2023-10-19T13:48:14;25.17;;;5.38;;
70605;SDS011;58173;52.500;5.494;2023-10-19T13:50:46;23.08;;;5.40;;
70605;SDS011;58173;52.500;5.494;2023-10-19T13:53:18;24.90;;;5.32;;
70605;SDS011;58173;52.500;5.494;2023-10-19T13:55:47;23.63;;;5.78;;
70605;SDS011;58173;52.500;5.494;2023-10-19T13:58:16;24.90;;;5.70;;
70605;SDS011;58173;52.500;5.494;2023-10-19T14:00:44;21.35;;;6.15;;
70605;SDS011;58173;52.500;5.494;2023-10-19T14:03:11;20.75;;;5.45;;
70605;SDS011;58173;52.500;5.494;2023-10-19T14:05:44;19.95;;;5.43;;
70605;SDS011;58173;52.500;5.494;2023-10-19T14:08:16;23.33;;;5.35;;
70605;SDS011;58173;52.500;5.494;2023-10-19T14:10:44;21.13;;;5.05;;
70605;SDS011;58173;52.500;5.494;2023-10-19T14:13:11;21.70;;;5.75;;
70605;SDS011;58173;52.500;5.494;2023-10-19T14:15:39;18.58;;;4.68;;
70605;SDS011;58173;52.500;5.494;2023-10-19T14:18:07;18.27;;;5.05;;
70605;SDS011;58173;52.500;5.494;2023-10-19T14:20:35;20.40;;;5.38;;
70605;SDS011;58173;52.500;5.494;2023-10-19T14:23:05;20.30;;;4.78;;
70605;SDS011;58173;52.500;5.494;2023-10-19T14:25:36;15.07;;;5.00;;
70605;SDS011;58173;52.500;5.494;2023-10-19T14:28:04;18.00;;;5.47;;
70605;SDS011;58173;52.500;5.494;2023-10-19T14:30:33;18.42;;;4.68;;
70605;SDS011;58173;52.500;5.494;2023-10-19T14:33:01;19.00;;;4.78;;
70605;SDS011;58173;52.500;5.494;2023-10-19T14:35:29;17.42;;;5.18;;
70605;SDS011;58173;52.500;5.494;2023-10-19T14:37:56;15.98;;;5.25;;
70605;SDS011;58173;52.500;5.494;2023-10-19T14:40:26;19.73;;;5.43;;
70605;SDS011;58173;52.500;5.494;2023-10-19T14:42:55;19.85;;;5.05;;
70605;SDS011;58173;52.500;5.494;2023-10-19T14:45:24;18.13;;;5.40;;
70605;SDS011;58173;52.500;5.494;2023-10-19T14:47:53;16.70;;;4.97;;
70605;SDS011;58173;52.500;5.494;2023-10-19T14:50:46;15.10;;;4.90;;
70605;SDS011;58173;52.500;5.494;2023-10-19T14:53:13;15.55;;;5.00;;
70605;SDS011;58173;52.500;5.494;2023-10-19T14:55:43;15.65;;;4.53;;
70605;SDS011;58173;52.500;5.494;2023-10-19T14:58:12;16.95;;;4.68;;
70605;SDS011;58173;52.500;5.494;2023-10-19T15:00:39;18.58;;;4.45;;
70605;SDS011;58173;52.500;5.494;2023-10-19T15:03:16;16.95;;;4.95;;
70605;SDS011;58173;52.500;5.494;2023-10-19T15:05:49;18.48;;;4.55;;
70605;SDS011;58173;52.500;5.494;2023-10-19T15:08:16;16.08;;;4.13;;
70605;SDS011;58173;52.500;5.494;2023-10-19T15:10:45;14.40;;;4.18;;
70605;SDS011;58173;52.500;5.494;2023-10-19T15:13:13;13.18;;;4.05;;
70605;SDS011;58173;52.500;5.494;2023-10-19T15:15:41;14.82;;;3.95;;
70605;SDS011;58173;52.500;5.494;2023-10-19T15:18:09;22.75;;;4.63;;
70605;SDS011;58173;52.500;5.494;2023-10-19T15:20:38;14.57;;;4.50;;